createdAt,value
2022-08-17T00:00:02.722Z,97777.00
2022-08-17T00:00:34.672Z,97777.00
2022-08-17T00:00:43.929Z,97777.00
2022-08-17T00:00:49.364Z,97773.00
2022-08-17T00:00:51.673Z,97773.00
2022-08-17T00:00:55.748Z,97773.00
2022-08-17T00:01:06.249Z,97773.00
2022-08-17T00:01:16.300Z,97775.00
2022-08-17T00:01:27.135Z,97777.00
2022-08-17T00:01:52.342Z,97775.00
2022-08-17T00:01:52.659Z,97777.00
2022-08-17T00:01:59.564Z,97773.00
2022-08-17T00:02:17.000Z,97779.00
2022-08-17T00:02:26.183Z,97775.00
2022-08-17T00:02:30.624Z,97779.00
2022-08-17T00:02:49.911Z,97775.00
2022-08-17T00:02:51.828Z,97777.00
2022-08-17T00:03:03.612Z,97775.00
2022-08-17T00:03:11.640Z,97775.00
2022-08-17T00:03:23.629Z,97775.00
2022-08-17T00:03:31.862Z,97777.00
2022-08-17T00:03:41.771Z,97775.00
2022-08-17T00:03:51.753Z,97779.00
2022-08-17T00:04:02.101Z,97777.00
2022-08-17T00:04:12.092Z,97775.00
2022-08-17T00:04:22.254Z,97775.00
2022-08-17T00:04:31.806Z,97777.00
2022-08-17T00:04:47.065Z,97781.00
2022-08-17T00:04:54.795Z,97777.00
2022-08-17T00:05:03.322Z,97777.00
2022-08-17T00:05:14.234Z,97777.00
2022-08-17T00:05:25.242Z,97779.00
2022-08-17T00:05:35.232Z,97779.00
2022-08-17T00:05:45.232Z,97777.00
2022-08-17T00:05:54.715Z,97777.00
2022-08-17T00:06:05.244Z,97777.00
2022-08-17T00:06:13.292Z,97777.00
2022-08-17T00:06:25.394Z,97779.00
2022-08-17T00:06:35.243Z,97775.00
2022-08-17T00:06:45.240Z,97777.00
2022-08-17T00:06:55.234Z,97781.00
2022-08-17T00:07:05.232Z,97777.00
2022-08-17T00:07:13.282Z,97777.00
2022-08-17T00:07:23.298Z,97779.00
2022-08-17T00:07:34.360Z,97779.00
2022-08-17T00:07:45.213Z,97779.00
2022-08-17T00:07:55.235Z,97779.00
2022-08-17T00:08:05.213Z,97779.00
2022-08-17T00:08:13.263Z,97779.00
2022-08-17T00:08:23.283Z,97779.00
2022-08-17T00:08:34.165Z,97777.00
2022-08-17T00:08:45.225Z,97775.00
2022-08-17T00:08:56.166Z,97777.00
2022-08-17T00:09:03.290Z,97775.00
2022-08-17T00:09:15.385Z,97779.00
2022-08-17T00:09:24.745Z,97775.00
2022-08-17T00:09:33.946Z,97777.00
2022-08-17T00:09:43.276Z,97775.00
2022-08-17T00:09:54.034Z,97777.00
2022-08-17T00:10:05.226Z,97775.00
2022-08-17T00:10:13.257Z,97777.00
2022-08-17T00:10:25.229Z,97777.00
2022-08-17T00:10:35.204Z,97775.00
2022-08-17T00:10:45.197Z,97775.00
2022-08-17T00:10:53.244Z,97775.00
2022-08-17T00:11:05.236Z,97773.00
2022-08-17T00:11:15.195Z,97775.00
2022-08-17T00:11:23.243Z,97775.00
2022-08-17T00:11:33.715Z,97777.00
2022-08-17T00:11:43.716Z,97777.00
2022-08-17T00:12:40.986Z,97775.00
2022-08-17T00:12:41.040Z,97775.00
2022-08-17T00:12:41.924Z,97777.00
2022-08-17T00:12:42.767Z,97775.00
2022-08-17T00:12:43.284Z,97775.00
2022-08-17T00:12:48.659Z,97777.00
2022-08-17T00:12:59.035Z,97775.00
2022-08-17T00:13:09.054Z,97773.00
2022-08-17T00:13:20.295Z,97775.00
2022-08-17T00:13:30.324Z,97775.00
2022-08-17T00:13:40.295Z,97773.00
2022-08-17T00:13:49.085Z,97775.00
2022-08-17T00:13:59.232Z,97777.00
2022-08-17T00:14:08.390Z,97775.00
2022-08-17T00:14:19.101Z,97775.00
2022-08-17T00:14:29.106Z,97775.00
2022-08-17T00:14:39.115Z,97771.00
2022-08-17T00:14:49.135Z,97775.00
2022-08-17T00:15:00.328Z,97775.00
2022-08-17T00:15:10.696Z,97773.00
2022-08-17T00:15:20.466Z,97773.00
2022-08-17T00:15:29.156Z,97775.00
2022-08-17T00:15:38.507Z,97777.00
2022-08-17T00:15:49.176Z,97771.00
2022-08-17T00:15:59.188Z,97775.00
2022-08-17T00:16:08.504Z,97775.00
2022-08-17T00:16:20.456Z,97773.00
2022-08-17T00:16:50.448Z,97775.00
2022-08-17T00:16:53.476Z,97775.00
2022-08-17T00:16:56.273Z,97777.00
2022-08-17T00:17:00.933Z,97775.00
2022-08-17T00:17:12.772Z,97773.00
2022-08-17T00:17:22.755Z,97775.00
2022-08-17T00:17:32.736Z,97775.00
2022-08-17T00:17:41.773Z,97775.00
2022-08-17T00:17:50.798Z,97775.00
2022-08-17T00:18:00.826Z,97777.00
2022-08-17T00:18:53.928Z,97773.00
2022-08-17T00:19:01.433Z,97777.00
2022-08-17T00:19:02.015Z,97771.00
2022-08-17T00:19:06.122Z,97775.00
2022-08-17T00:19:06.808Z,97775.00
2022-08-17T00:19:07.789Z,97777.00
2022-08-17T00:19:11.355Z,97775.00
2022-08-17T00:19:21.197Z,97779.00
2022-08-17T00:19:31.216Z,97777.00
2022-08-17T00:19:41.275Z,97779.00
2022-08-17T00:19:53.173Z,97777.00
2022-08-17T00:20:01.207Z,97777.00
2022-08-17T00:20:11.217Z,97779.00
2022-08-17T00:20:23.369Z,97779.00
2022-08-17T00:20:35.045Z,97779.00
2022-08-17T00:20:44.768Z,97777.00
2022-08-17T00:20:52.835Z,97779.00
2022-08-17T00:21:02.948Z,97777.00
2022-08-17T00:21:14.764Z,97779.00
2022-08-17T00:21:25.481Z,97779.00
2022-08-17T00:22:29.849Z,97779.00
2022-08-17T00:22:30.734Z,97777.00
2022-08-17T00:22:31.671Z,97777.00
2022-08-17T00:22:33.171Z,97779.00
2022-08-17T00:22:34.232Z,97777.00
2022-08-17T00:22:34.376Z,97779.00
2022-08-17T00:22:37.199Z,97779.00
2022-08-17T00:22:49.375Z,97777.00
2022-08-17T00:22:57.289Z,97779.00
2022-08-17T00:23:07.350Z,97779.00
2022-08-17T00:23:19.231Z,97779.00
2022-08-17T00:23:27.298Z,97781.00
2022-08-17T00:23:39.250Z,97779.00
2022-08-17T00:23:50.801Z,97777.00
2022-08-17T00:23:59.308Z,97783.00
2022-08-17T00:24:09.583Z,97781.00
2022-08-17T00:24:20.769Z,97781.00
2022-08-17T00:24:29.589Z,97783.00
2022-08-17T00:24:39.595Z,97781.00
2022-08-17T00:24:49.611Z,97781.00
2022-08-17T00:24:59.608Z,97783.00
2022-08-17T00:25:10.981Z,97783.00
2022-08-17T00:25:19.629Z,97785.00
2022-08-17T00:25:29.641Z,97781.00
2022-08-17T00:25:39.300Z,97781.00
2022-08-17T00:25:49.650Z,97781.00
2022-08-17T00:25:59.661Z,97783.00
2022-08-17T00:26:09.673Z,97781.00
2022-08-17T00:26:43.190Z,97787.00
2022-08-17T00:26:44.341Z,97783.00
2022-08-17T00:26:44.770Z,97785.00
2022-08-17T00:26:49.349Z,97787.00
2022-08-17T00:27:01.229Z,97785.00
2022-08-17T00:27:09.250Z,97787.00
2022-08-17T00:27:19.279Z,97787.00
2022-08-17T00:27:29.269Z,97787.00
2022-08-17T00:27:39.260Z,97789.00
2022-08-17T00:27:51.210Z,97789.00
2022-08-17T00:28:01.199Z,97787.00
2022-08-17T00:28:11.195Z,97789.00
2022-08-17T00:28:19.772Z,97791.00
2022-08-17T00:28:31.183Z,97789.00
2022-08-17T00:28:41.203Z,97791.00
2022-08-17T00:28:51.880Z,97791.00
2022-08-17T00:28:59.298Z,97791.00
2022-08-17T00:29:09.834Z,97793.00
2022-08-17T00:29:20.325Z,97791.00
2022-08-17T00:29:30.361Z,97795.00
2022-08-17T00:29:39.421Z,97793.00
2022-08-17T00:29:49.438Z,97795.00
2022-08-17T00:30:01.372Z,97795.00
2022-08-17T00:30:11.382Z,97795.00
2022-08-17T00:30:21.360Z,97797.00
2022-08-17T00:30:31.362Z,97797.00
2022-08-17T00:30:52.810Z,97791.00
2022-08-17T00:30:53.598Z,97793.00
2022-08-17T00:31:02.920Z,97795.00
2022-08-17T00:31:13.425Z,97795.00
2022-08-17T00:31:21.502Z,97793.00
2022-08-17T00:31:33.448Z,97795.00
2022-08-17T00:31:41.472Z,97793.00
2022-08-17T00:31:53.455Z,97793.00
2022-08-17T00:33:12.069Z,97795.00
2022-08-17T00:33:12.123Z,97791.00
2022-08-17T00:33:12.228Z,97795.00
2022-08-17T00:33:14.003Z,97795.00
2022-08-17T00:33:14.104Z,97795.00
2022-08-17T00:33:15.711Z,97791.00
2022-08-17T00:33:17.129Z,97791.00
2022-08-17T00:33:22.741Z,97793.00
2022-08-17T00:33:26.441Z,97791.00
2022-08-17T00:33:36.111Z,97789.00
2022-08-17T00:33:48.071Z,97789.00
2022-08-17T00:33:58.062Z,97791.00
2022-08-17T00:34:08.050Z,97789.00
2022-08-17T00:34:16.112Z,97789.00
2022-08-17T00:34:28.072Z,97787.00
2022-08-17T00:34:38.462Z,97789.00
2022-08-17T00:34:47.952Z,97787.00
2022-08-17T00:34:58.452Z,97789.00
2022-08-17T00:35:08.451Z,97785.00
2022-08-17T00:35:18.497Z,97791.00
2022-08-17T00:35:27.959Z,97787.00
2022-08-17T00:35:36.492Z,97789.00
2022-08-17T00:35:48.472Z,97789.00
2022-08-17T00:35:56.496Z,97789.00
2022-08-17T00:36:07.444Z,97789.00
2022-08-17T00:36:16.512Z,97785.00
2022-08-17T00:36:28.013Z,97789.00
2022-08-17T00:36:36.512Z,97785.00
2022-08-17T00:36:46.566Z,97787.00
2022-08-17T00:36:57.191Z,97785.00
2022-08-17T00:37:08.433Z,97785.00
2022-08-17T00:37:17.205Z,97785.00
2022-08-17T00:37:28.442Z,97787.00
2022-08-17T00:37:36.481Z,97785.00
2022-08-17T00:37:46.463Z,97783.00
2022-08-17T00:37:56.473Z,97785.00
2022-08-17T00:38:06.462Z,97785.00
2022-08-17T00:38:18.413Z,97787.00
2022-08-17T00:38:26.467Z,97785.00
2022-08-17T00:38:36.503Z,97785.00
2022-08-17T00:38:46.473Z,97781.00
2022-08-17T00:38:56.464Z,97781.00
2022-08-17T00:39:08.406Z,97783.00
2022-08-17T00:39:16.472Z,97781.00
2022-08-17T00:39:26.501Z,97783.00
2022-08-17T00:39:38.455Z,97781.00
2022-08-17T00:39:46.534Z,97781.00
2022-08-17T00:39:56.518Z,97781.00
2022-08-17T00:40:08.521Z,97781.00
2022-08-17T00:40:18.413Z,97779.00
2022-08-17T00:40:39.842Z,97781.00
2022-08-17T00:40:44.586Z,97779.00
2022-08-17T00:40:49.020Z,97775.00
2022-08-17T00:40:59.223Z,97783.00
2022-08-17T00:41:08.385Z,97781.00
2022-08-17T00:41:17.995Z,97781.00
2022-08-17T00:41:28.410Z,97781.00
2022-08-17T00:41:42.596Z,97779.00
2022-08-17T00:41:47.994Z,97781.00
2022-08-17T00:41:58.903Z,97777.00
2022-08-17T00:42:08.437Z,97779.00
2022-08-17T00:42:18.464Z,97777.00
2022-08-17T00:42:31.077Z,97777.00
2022-08-17T00:42:38.467Z,97783.00
2022-08-17T00:42:48.552Z,97779.00
2022-08-17T00:42:58.016Z,97779.00
2022-08-17T00:43:08.235Z,97777.00
2022-08-17T00:43:18.088Z,97779.00
2022-08-17T00:43:29.995Z,97777.00
2022-08-17T00:43:39.986Z,97781.00
2022-08-17T00:43:48.515Z,97779.00
2022-08-17T00:43:58.515Z,97779.00
2022-08-17T00:44:09.945Z,97779.00
2022-08-17T00:44:19.936Z,97779.00
2022-08-17T00:44:30.387Z,97779.00
2022-08-17T00:44:37.980Z,97785.00
2022-08-17T00:44:48.893Z,97781.00
2022-08-17T00:44:57.997Z,97777.00
2022-08-17T00:45:07.997Z,97779.00
2022-08-17T00:45:19.966Z,97779.00
2022-08-17T00:45:28.585Z,97777.00
2022-08-17T00:45:37.966Z,97775.00
2022-08-17T00:45:48.020Z,97779.00
2022-08-17T00:45:57.987Z,97777.00
2022-08-17T00:46:09.941Z,97777.00
2022-08-17T00:46:18.740Z,97783.00
2022-08-17T00:46:28.007Z,97779.00
2022-08-17T00:46:39.915Z,97779.00
2022-08-17T00:46:49.447Z,97781.00
2022-08-17T00:46:58.006Z,97781.00
2022-08-17T00:47:07.956Z,97779.00
2022-08-17T00:47:18.006Z,97781.00
2022-08-17T00:47:28.066Z,97781.00
2022-08-17T00:47:39.065Z,97781.00
2022-08-17T00:47:48.065Z,97781.00
2022-08-17T00:47:58.077Z,97777.00
2022-08-17T00:48:28.965Z,97781.00
2022-08-17T00:48:29.028Z,97787.00
2022-08-17T00:48:31.079Z,97783.00
2022-08-17T00:48:43.016Z,97779.00
2022-08-17T00:48:52.987Z,97783.00
2022-08-17T00:49:01.058Z,97781.00
2022-08-17T00:49:13.017Z,97785.00
2022-08-17T00:49:22.039Z,97781.00
2022-08-17T00:49:32.088Z,97783.00
2022-08-17T00:49:41.820Z,97783.00
2022-08-17T00:49:51.802Z,97783.00
2022-08-17T00:50:01.382Z,97777.00
2022-08-17T00:50:11.824Z,97783.00
2022-08-17T00:50:22.988Z,97781.00
2022-08-17T00:50:31.837Z,97781.00
2022-08-17T00:50:42.980Z,97781.00
2022-08-17T00:50:51.029Z,97783.00
2022-08-17T00:51:01.097Z,97781.00
2022-08-17T00:51:11.861Z,97781.00
2022-08-17T00:51:21.321Z,97779.00
2022-08-17T00:51:32.969Z,97779.00
2022-08-17T00:51:41.849Z,97781.00
2022-08-17T00:51:51.890Z,97777.00
2022-08-17T00:52:01.017Z,97781.00
2022-08-17T00:52:12.082Z,97779.00
2022-08-17T00:52:21.039Z,97783.00
2022-08-17T00:52:31.610Z,97781.00
2022-08-17T00:52:42.007Z,97781.00
2022-08-17T00:52:52.969Z,97781.00
2022-08-17T00:53:02.959Z,97781.00
2022-08-17T00:53:11.957Z,97781.00
2022-08-17T00:53:22.978Z,97779.00
2022-08-17T00:53:31.011Z,97783.00
2022-08-17T00:53:41.928Z,97783.00
2022-08-17T00:53:53.002Z,97781.00
2022-08-17T00:54:02.960Z,97783.00
2022-08-17T00:54:11.014Z,97781.00
2022-08-17T00:54:22.952Z,97779.00
2022-08-17T00:54:32.971Z,97785.00
2022-08-17T00:54:43.521Z,97781.00
2022-08-17T00:54:52.574Z,97779.00
2022-08-17T00:55:02.588Z,97781.00
2022-08-17T00:55:14.536Z,97779.00
2022-08-17T00:55:22.584Z,97779.00
2022-08-17T00:55:33.491Z,97777.00
2022-08-17T00:55:44.510Z,97779.00
2022-08-17T00:55:54.513Z,97777.00
2022-08-17T00:56:02.566Z,97779.00
2022-08-17T00:56:12.552Z,97779.00
2022-08-17T00:56:22.609Z,97777.00
2022-08-17T00:56:34.491Z,97777.00
2022-08-17T00:56:42.562Z,97775.00
2022-08-17T00:56:52.572Z,97781.00
2022-08-17T00:57:02.571Z,97777.00
2022-08-17T00:57:13.333Z,97777.00
2022-08-17T00:57:24.510Z,97777.00
2022-08-17T00:57:32.689Z,97777.00
2022-08-17T00:57:42.721Z,97777.00
2022-08-17T00:57:55.415Z,97775.00
2022-08-17T00:58:04.522Z,97781.00
2022-08-17T00:58:14.501Z,97775.00
2022-08-17T00:58:35.821Z,97779.00
2022-08-17T00:58:36.800Z,97777.00
2022-08-17T00:58:46.033Z,97775.00
2022-08-17T00:58:54.085Z,97781.00
2022-08-17T00:59:04.209Z,97781.00
2022-08-17T00:59:16.045Z,97781.00
2022-08-17T00:59:24.085Z,97779.00
2022-08-17T00:59:34.136Z,97777.00
2022-08-17T00:59:46.042Z,97783.00
2022-08-17T01:00:02.228Z,97781.00
2022-08-17T01:00:06.769Z,97781.00
2022-08-17T01:00:17.773Z,97779.00
2022-08-17T01:00:27.792Z,97777.00
2022-08-17T01:00:35.810Z,97781.00
2022-08-17T01:00:46.662Z,97777.00
2022-08-17T01:00:57.827Z,97781.00
2022-08-17T01:01:05.904Z,97781.00
2022-08-17T01:01:21.176Z,97781.00
2022-08-17T01:01:26.797Z,97781.00
2022-08-17T01:01:35.830Z,97783.00
2022-08-17T01:01:45.856Z,97783.00
2022-08-17T01:01:57.793Z,97783.00
2022-08-17T01:02:07.764Z,97783.00
2022-08-17T01:02:15.804Z,97785.00
2022-08-17T01:02:25.938Z,97783.00
2022-08-17T01:02:42.170Z,97781.00
2022-08-17T01:02:46.643Z,97783.00
2022-08-17T01:02:55.961Z,97783.00
2022-08-17T01:03:05.964Z,97783.00
2022-08-17T01:03:17.763Z,97783.00
2022-08-17T01:03:26.451Z,97783.00
2022-08-17T01:03:36.470Z,97783.00
2022-08-17T01:03:47.731Z,97781.00
2022-08-17T01:03:59.751Z,97785.00
2022-08-17T01:04:07.237Z,97783.00
2022-08-17T01:04:15.800Z,97781.00
2022-08-17T01:04:25.831Z,97781.00
2022-08-17T01:04:35.928Z,97781.00
2022-08-17T01:04:45.931Z,97781.00
2022-08-17T01:04:56.517Z,97781.00
2022-08-17T01:05:05.768Z,97779.00
2022-08-17T01:05:18.639Z,97779.00
2022-08-17T01:05:27.742Z,97781.00
2022-08-17T01:05:36.554Z,97779.00
2022-08-17T01:05:45.767Z,97783.00
2022-08-17T01:05:56.600Z,97781.00
2022-08-17T01:06:05.900Z,97781.00
2022-08-17T01:06:16.587Z,97779.00
2022-08-17T01:06:27.736Z,97781.00
2022-08-17T01:06:35.778Z,97779.00
2022-08-17T01:06:46.606Z,97779.00
2022-08-17T01:06:56.630Z,97783.00
2022-08-17T01:07:05.748Z,97779.00
2022-08-17T01:07:17.727Z,97781.00
2022-08-17T01:07:27.739Z,97781.00
2022-08-17T01:07:38.013Z,97777.00
2022-08-17T01:07:47.869Z,97777.00
2022-08-17T01:07:56.680Z,97777.00
2022-08-17T01:08:08.410Z,97779.00
2022-08-17T01:08:17.795Z,97777.00
2022-08-17T01:08:26.066Z,97779.00
2022-08-17T01:08:37.558Z,97779.00
2022-08-17T01:08:45.866Z,97777.00
2022-08-17T01:08:57.642Z,97777.00
2022-08-17T01:09:07.834Z,97779.00
2022-08-17T01:09:17.814Z,97775.00
2022-08-17T01:09:25.889Z,97777.00
2022-08-17T01:09:36.218Z,97779.00
2022-08-17T01:09:47.797Z,97777.00
2022-08-17T01:09:56.764Z,97775.00
2022-08-17T01:10:05.830Z,97781.00
2022-08-17T01:10:58.729Z,97779.00
2022-08-17T01:10:58.766Z,97779.00
2022-08-17T01:10:58.921Z,97777.00
2022-08-17T01:10:59.041Z,97779.00
2022-08-17T01:11:01.809Z,97777.00
2022-08-17T01:11:10.241Z,97775.00
2022-08-17T01:11:18.312Z,97775.00
2022-08-17T01:11:30.257Z,97777.00
2022-08-17T01:11:40.229Z,97779.00
2022-08-17T01:11:50.240Z,97779.00
2022-08-17T01:11:58.298Z,97779.00
2022-08-17T01:12:10.247Z,97781.00
2022-08-17T01:12:18.300Z,97779.00
2022-08-17T01:12:28.307Z,97779.00
2022-08-17T01:12:40.266Z,97781.00
2022-08-17T01:12:49.089Z,97777.00
2022-08-17T01:13:00.249Z,97781.00
2022-08-17T01:13:08.269Z,97779.00
2022-08-17T01:13:18.316Z,97781.00
2022-08-17T01:13:28.308Z,97779.00
2022-08-17T01:13:41.361Z,97777.00
2022-08-17T01:13:49.719Z,97777.00
2022-08-17T01:13:59.188Z,97779.00
2022-08-17T01:14:10.238Z,97779.00
2022-08-17T01:14:18.279Z,97777.00
2022-08-17T01:14:30.279Z,97779.00
2022-08-17T01:14:38.291Z,97779.00
2022-08-17T01:14:50.229Z,97779.00
2022-08-17T01:15:00.239Z,97775.00
2022-08-17T01:15:10.209Z,97777.00
2022-08-17T01:15:20.235Z,97775.00
2022-08-17T01:15:29.018Z,97781.00
2022-08-17T01:15:39.033Z,97777.00
2022-08-17T01:15:49.052Z,97777.00
2022-08-17T01:15:59.051Z,97775.00
2022-08-17T01:16:09.054Z,97777.00
2022-08-17T01:16:19.075Z,97777.00
2022-08-17T01:16:29.079Z,97779.00
2022-08-17T01:16:38.259Z,97779.00
2022-08-17T01:16:49.087Z,97777.00
2022-08-17T01:16:59.106Z,97779.00
2022-08-17T01:17:10.194Z,97777.00
2022-08-17T01:17:19.120Z,97777.00
2022-08-17T01:17:28.311Z,97775.00
2022-08-17T01:17:38.249Z,97777.00
2022-08-17T01:17:49.279Z,97779.00
2022-08-17T01:17:59.140Z,97779.00
2022-08-17T01:18:10.180Z,97779.00
2022-08-17T01:18:19.170Z,97779.00
2022-08-17T01:18:29.242Z,97777.00
2022-08-17T01:18:40.200Z,97779.00
2022-08-17T01:18:48.253Z,97779.00
2022-08-17T01:19:00.253Z,97779.00
2022-08-17T01:19:08.240Z,97779.00
2022-08-17T01:19:19.159Z,97777.00
2022-08-17T01:19:30.202Z,97781.00
2022-08-17T01:19:40.201Z,97779.00
2022-08-17T01:19:48.230Z,97779.00
2022-08-17T01:19:58.250Z,97783.00
2022-08-17T01:20:09.080Z,97781.00
2022-08-17T01:20:18.266Z,97781.00
2022-08-17T01:20:30.169Z,97781.00
2022-08-17T01:20:43.126Z,97779.00
2022-08-17T01:20:52.800Z,97777.00
2022-08-17T01:21:01.332Z,97779.00
2022-08-17T01:21:11.378Z,97779.00
2022-08-17T01:21:23.323Z,97775.00
2022-08-17T01:21:33.281Z,97779.00
2022-08-17T01:21:41.373Z,97779.00
2022-08-17T01:21:51.353Z,97781.00
2022-08-17T01:22:01.366Z,97781.00
2022-08-17T01:22:11.347Z,97781.00
2022-08-17T01:22:21.345Z,97783.00
2022-08-17T01:22:32.180Z,97781.00
2022-08-17T01:22:41.334Z,97781.00
2022-08-17T01:22:51.581Z,97779.00
2022-08-17T01:23:03.293Z,97781.00
2022-08-17T01:23:13.271Z,97781.00
2022-08-17T01:23:22.900Z,97781.00
2022-08-17T01:23:33.301Z,97783.00
2022-08-17T01:23:42.858Z,97781.00
2022-08-17T01:23:54.839Z,97783.00
2022-08-17T01:24:03.310Z,97783.00
2022-08-17T01:24:13.312Z,97783.00
2022-08-17T01:24:22.853Z,97783.00
2022-08-17T01:24:34.906Z,97783.00
2022-08-17T01:24:42.872Z,97779.00
2022-08-17T01:24:52.862Z,97783.00
2022-08-17T01:25:03.350Z,97783.00
2022-08-17T01:25:13.335Z,97783.00
2022-08-17T01:25:23.343Z,97783.00
2022-08-17T01:25:33.345Z,97783.00
2022-08-17T01:25:43.351Z,97781.00
2022-08-17T01:25:52.941Z,97781.00
2022-08-17T01:26:03.156Z,97779.00
2022-08-17T01:26:13.359Z,97781.00
2022-08-17T01:26:23.362Z,97781.00
2022-08-17T01:26:32.956Z,97779.00
2022-08-17T01:26:43.299Z,97777.00
2022-08-17T01:26:53.369Z,97783.00
2022-08-17T01:27:03.372Z,97781.00
2022-08-17T01:27:12.953Z,97781.00
2022-08-17T01:27:23.380Z,97781.00
2022-08-17T01:27:32.963Z,97781.00
2022-08-17T01:27:43.011Z,97781.00
2022-08-17T01:27:52.995Z,97781.00
2022-08-17T01:28:03.403Z,97779.00
2022-08-17T01:28:33.405Z,97781.00
2022-08-17T01:28:33.495Z,97781.00
2022-08-17T01:28:54.491Z,97779.00
2022-08-17T01:28:55.110Z,97783.00
2022-08-17T01:28:55.447Z,97781.00
2022-08-17T01:29:03.412Z,97783.00
2022-08-17T01:29:13.415Z,97781.00
2022-08-17T01:29:24.947Z,97779.00
2022-08-17T01:29:34.947Z,97781.00
2022-08-17T01:29:44.960Z,97783.00
2022-08-17T01:29:54.943Z,97781.00
2022-08-17T01:30:04.023Z,97783.00
2022-08-17T01:30:56.813Z,97787.00
2022-08-17T01:30:58.419Z,97783.00
2022-08-17T01:30:58.561Z,97785.00
2022-08-17T01:30:58.760Z,97785.00
2022-08-17T01:30:58.895Z,97787.00
2022-08-17T01:31:05.111Z,97783.00
2022-08-17T01:31:15.103Z,97787.00
2022-08-17T01:31:25.485Z,97787.00
2022-08-17T01:31:37.044Z,97787.00
2022-08-17T01:31:47.077Z,97787.00
2022-08-17T01:31:55.097Z,97783.00
2022-08-17T01:32:07.064Z,97785.00
2022-08-17T01:32:17.061Z,97785.00
2022-08-17T01:32:25.104Z,97787.00
2022-08-17T01:32:35.105Z,97785.00
2022-08-17T01:32:45.106Z,97785.00
2022-08-17T01:32:55.145Z,97785.00
2022-08-17T01:33:06.035Z,97785.00
2022-08-17T01:33:17.034Z,97785.00
2022-08-17T01:33:25.095Z,97783.00
2022-08-17T01:33:37.045Z,97783.00
2022-08-17T01:33:47.044Z,97785.00
2022-08-17T01:33:55.145Z,97785.00
2022-08-17T01:34:07.025Z,97781.00
2022-08-17T01:34:17.038Z,97783.00
2022-08-17T01:34:31.576Z,97783.00
2022-08-17T01:34:38.085Z,97787.00
2022-08-17T01:34:50.559Z,97785.00
2022-08-17T01:34:59.660Z,97787.00
2022-08-17T01:35:09.629Z,97781.00
2022-08-17T01:35:19.614Z,97785.00
2022-08-17T01:35:28.855Z,97783.00
2022-08-17T01:35:37.756Z,97785.00
2022-08-17T01:35:49.615Z,97781.00
2022-08-17T01:35:58.019Z,97785.00
2022-08-17T01:36:08.025Z,97783.00
2022-08-17T01:36:18.017Z,97781.00
2022-08-17T01:36:28.031Z,97781.00
2022-08-17T01:36:38.036Z,97783.00
2022-08-17T01:36:48.054Z,97781.00
2022-08-17T01:36:58.064Z,97781.00
2022-08-17T01:37:07.728Z,97783.00
2022-08-17T01:37:18.066Z,97781.00
2022-08-17T01:37:28.076Z,97783.00
2022-08-17T01:37:39.604Z,97783.00
2022-08-17T01:37:47.926Z,97781.00
2022-08-17T01:37:58.106Z,97781.00
2022-08-17T01:38:07.806Z,97781.00
2022-08-17T01:38:18.107Z,97783.00
2022-08-17T01:38:27.748Z,97785.00
2022-08-17T01:38:38.153Z,97785.00
2022-08-17T01:38:48.149Z,97785.00
2022-08-17T01:38:58.146Z,97783.00
2022-08-17T01:39:07.684Z,97783.00
2022-08-17T01:39:19.646Z,97783.00
2022-08-17T01:39:27.736Z,97787.00
2022-08-17T01:39:39.775Z,97787.00
2022-08-17T01:39:49.688Z,97787.00
2022-08-17T01:39:57.754Z,97787.00
2022-08-17T01:40:07.766Z,97787.00
2022-08-17T01:40:17.707Z,97789.00
2022-08-17T01:40:29.647Z,97787.00
2022-08-17T01:40:37.692Z,97785.00
2022-08-17T01:40:49.657Z,97787.00
2022-08-17T01:41:00.347Z,97791.00
2022-08-17T01:41:10.131Z,97789.00
2022-08-17T01:41:19.569Z,97791.00
2022-08-17T01:41:29.268Z,97789.00
2022-08-17T01:41:39.259Z,97791.00
2022-08-17T01:41:51.290Z,97791.00
2022-08-17T01:42:01.287Z,97793.00
2022-08-17T01:42:10.832Z,97791.00
2022-08-17T01:42:20.868Z,97793.00
2022-08-17T01:42:32.797Z,97791.00
2022-08-17T01:42:42.845Z,97795.00
2022-08-17T01:42:51.835Z,97793.00
2022-08-17T01:43:02.789Z,97793.00
2022-08-17T01:43:12.787Z,97797.00
2022-08-17T01:43:22.789Z,97797.00
2022-08-17T01:43:32.779Z,97795.00
2022-08-17T01:43:40.826Z,97797.00
2022-08-17T01:43:52.790Z,97797.00
2022-08-17T01:44:02.817Z,97797.00
2022-08-17T01:44:10.826Z,97797.00
2022-08-17T01:44:22.788Z,97795.00
2022-08-17T01:44:31.611Z,97799.00
2022-08-17T01:44:40.819Z,97803.00
2022-08-17T01:44:52.808Z,97803.00
2022-08-17T01:45:00.817Z,97805.00
2022-08-17T01:45:12.779Z,97805.00
2022-08-17T01:45:21.779Z,97805.00
2022-08-17T01:45:30.825Z,97801.00
2022-08-17T01:45:40.819Z,97806.00
2022-08-17T01:46:03.551Z,97803.00
2022-08-17T01:46:04.033Z,97805.00
2022-08-17T01:46:12.759Z,97805.00
2022-08-17T01:46:22.388Z,97803.00
2022-08-17T01:46:32.509Z,97805.00
2022-08-17T01:46:42.518Z,97805.00
2022-08-17T01:46:54.290Z,97803.00
2022-08-17T01:47:02.547Z,97805.00
2022-08-17T01:47:14.293Z,97803.00
2022-08-17T01:47:24.298Z,97806.00
2022-08-17T01:47:32.549Z,97805.00
2022-08-17T01:47:42.570Z,97803.00
2022-08-17T01:47:52.569Z,97803.00
2022-08-17T01:48:02.589Z,97805.00
2022-08-17T01:48:14.279Z,97805.00
2022-08-17T01:48:24.300Z,97805.00
2022-08-17T01:48:32.610Z,97805.00
2022-08-17T01:48:42.609Z,97803.00
2022-08-17T01:48:54.282Z,97805.00
2022-08-17T01:49:02.629Z,97805.00
2022-08-17T01:49:14.280Z,97805.00
2022-08-17T01:49:24.293Z,97805.00
2022-08-17T01:49:34.270Z,97803.00
2022-08-17T01:49:44.280Z,97801.00
2022-08-17T01:49:54.280Z,97803.00
2022-08-17T01:50:05.439Z,97803.00
2022-08-17T01:50:12.320Z,97797.00
2022-08-17T01:50:22.540Z,97803.00
2022-08-17T01:50:34.261Z,97797.00
2022-08-17T01:50:44.282Z,97799.00
2022-08-17T01:50:53.301Z,97797.00
2022-08-17T01:51:02.333Z,97797.00
2022-08-17T01:51:14.279Z,97799.00
2022-08-17T01:51:24.300Z,97799.00
2022-08-17T01:51:33.910Z,97797.00
2022-08-17T01:51:44.269Z,97799.00
2022-08-17T01:51:54.262Z,97795.00
2022-08-17T01:52:04.260Z,97797.00
2022-08-17T01:52:14.268Z,97797.00
2022-08-17T01:52:22.310Z,97797.00
2022-08-17T01:52:34.261Z,97795.00
2022-08-17T01:52:44.260Z,97795.00
2022-08-17T01:52:54.264Z,97793.00
2022-08-17T01:53:04.269Z,97795.00
2022-08-17T01:53:12.309Z,97795.00
2022-08-17T01:53:22.339Z,97795.00
2022-08-17T01:53:34.259Z,97793.00
2022-08-17T01:53:44.250Z,97791.00
2022-08-17T01:53:52.503Z,97791.00
2022-08-17T01:54:03.254Z,97793.00
2022-08-17T01:54:14.253Z,97791.00
2022-08-17T01:54:22.300Z,97789.00
2022-08-17T01:54:32.319Z,97789.00
2022-08-17T01:54:44.251Z,97789.00
2022-08-17T01:54:54.242Z,97789.00
2022-08-17T01:55:02.582Z,97791.00
2022-08-17T01:55:13.141Z,97789.00
2022-08-17T01:55:27.284Z,97789.00
2022-08-17T01:55:34.234Z,97787.00
2022-08-17T01:55:42.622Z,97787.00
2022-08-17T01:55:52.627Z,97789.00
2022-08-17T01:56:02.561Z,97789.00
2022-08-17T01:56:14.212Z,97789.00
2022-08-17T01:56:24.252Z,97789.00
2022-08-17T01:56:32.674Z,97789.00
2022-08-17T01:56:42.424Z,97789.00
2022-08-17T01:56:52.681Z,97787.00
2022-08-17T01:57:02.700Z,97791.00
2022-08-17T01:57:12.292Z,97789.00
2022-08-17T01:57:22.303Z,97789.00
2022-08-17T01:57:32.731Z,97787.00
2022-08-17T01:57:42.741Z,97789.00
2022-08-17T01:57:52.748Z,97791.00
2022-08-17T01:58:02.762Z,97789.00
2022-08-17T01:58:12.769Z,97789.00
2022-08-17T01:58:23.091Z,97789.00